Time;durP1;ratioP1;P1;durP2;ratioP2;P2;SDS_P1;SDS_P2;PMS_P1;PMS_P2;Temp;Humidity;BMP_temperature;BMP_pressure;BME280_temperature;BME280_humidity;BME280_pressure;Samples;Min_cycle;Max_cycle;Signal;HPM_P1;HPM_P2
2021/07/04 00:00:43;;;;;;;7.18;6.45;;;19.10;99.60;;;;;;5025385;28;20352;-80
2021/07/04 00:03:12;;;;;;;8.20;7.20;;;19.10;99.90;;;;;;5017581;28;20045;-75
2021/07/04 00:05:44;;;;;;;7.43;6.68;;;19.10;99.90;;;;;;5034952;28;20032;-78
2021/07/04 00:08:14;;;;;;;7.80;6.90;;;19.00;99.90;;;;;;5038324;28;20041;-79
2021/07/04 00:10:45;;;;;;;8.05;7.25;;;19.00;99.90;;;;;;5019652;28;20038;-79
2021/07/04 00:13:12;;;;;;;7.53;6.43;;;18.80;99.90;;;;;;5025807;28;20045;-76
2021/07/04 00:15:40;;;;;;;7.18;6.35;;;18.80;99.90;;;;;;5034532;28;20029;-78
2021/07/04 00:18:09;;;;;;;6.90;6.10;;;18.80;99.90;;;;;;5036283;28;20049;-78
2021/07/04 00:20:36;;;;;;;7.30;6.22;;;18.70;99.90;;;;;;5018615;28;20034;-79
2021/07/04 00:23:02;;;;;;;9.50;6.95;;;18.70;99.90;;;;;;5018431;28;20038;-79
2021/07/04 00:25:30;;;;;;;7.40;6.50;;;18.60;99.90;;;;;;5015436;28;20468;-78
2021/07/04 00:27:57;;;;;;;7.35;6.63;;;18.60;99.90;;;;;;5018811;28;20061;-79
2021/07/04 00:30:25;;;;;;;8.45;7.10;;;18.60;99.90;;;;;;5018471;28;20041;-78
2021/07/04 00:32:52;;;;;;;9.40;6.50;;;18.50;99.90;;;;;;5014402;28;20037;-78
2021/07/04 00:35:21;;;;;;;7.28;6.28;;;18.50;99.90;;;;;;5018346;28;20030;-78
2021/07/04 00:37:48;;;;;;;6.97;6.25;;;18.40;99.90;;;;;;5032073;28;20037;-79
2021/07/04 00:40:15;;;;;;;9.05;6.53;;;18.50;99.90;;;;;;5039086;28;20040;-75
2021/07/04 00:42:42;;;;;;;9.07;6.43;;;18.40;99.90;;;;;;5037143;28;20048;-79
2021/07/04 00:45:20;;;;;;;7.95;6.78;;;18.40;99.90;;;;;;5032792;28;20384;-79
2021/07/04 00:47:48;;;;;;;7.85;7.05;;;18.40;99.90;;;;;;5020394;28;20045;-80
2021/07/04 00:50:18;;;;;;;8.73;6.82;;;18.50;99.90;;;;;;5030033;28;20390;-78
2021/07/04 00:52:45;;;;;;;6.70;6.00;;;18.60;99.90;;;;;;5032703;28;20474;-80
2021/07/04 00:55:15;;;;;;;7.85;6.75;;;18.60;99.90;;;;;;5022596;28;20046;-76
2021/07/04 00:57:44;;;;;;;7.78;6.97;;;18.60;99.90;;;;;;5015130;28;20038;-79
2021/07/04 01:00:14;;;;;;;8.73;6.78;;;18.70;99.90;;;;;;5025646;28;20022;-80
2021/07/04 01:02:42;;;;;;;9.20;7.05;;;18.60;99.90;;;;;;5017091;28;20037;-80
2021/07/04 01:05:18;;;;;;;9.38;6.97;;;18.50;99.90;;;;;;5011663;28;20045;-79
2021/07/04 01:07:46;;;;;;;7.40;6.43;;;18.50;99.90;;;;;;5012550;28;20484;-79
2021/07/04 01:10:16;;;;;;;7.95;7.00;;;18.50;99.90;;;;;;5029693;28;20060;-74
2021/07/04 01:12:44;;;;;;;;;;;18.50;99.90;;;;;;5016338;28;20029;-78
2021/07/04 01:15:13;;;;;;;10.77;7.60;;;18.40;99.90;;;;;;5014165;28;19916;-79
2021/07/04 01:17:39;;;;;;;9.23;7.07;;;18.40;99.90;;;;;;5031598;28;20045;-80
2021/07/04 01:20:09;;;;;;;9.30;7.10;;;18.30;99.90;;;;;;5020671;28;20045;-80
2021/07/04 01:22:38;;;;;;;8.05;7.10;;;18.20;99.90;;;;;;5026844;28;20036;-79
2021/07/04 01:25:10;;;;;;;7.97;7.18;;;18.20;99.90;;;;;;5013727;28;20037;-79
2021/07/04 01:27:38;;;;;;;10.05;7.35;;;18.10;99.90;;;;;;5002834;28;20050;-79
2021/07/04 01:30:07;;;;;;;11.15;8.02;;;18.10;99.90;;;;;;5030160;28;20403;-79
2021/07/04 01:32:34;;;;;;;8.27;7.33;;;18.00;99.90;;;;;;5013267;28;20123;-79
2021/07/04 01:35:00;;;;;;;8.23;6.90;;;17.90;99.90;;;;;;5011142;28;20038;-80
2021/07/04 01:37:27;;;;;;;8.07;7.10;;;17.90;99.90;;;;;;5025996;28;20053;-79
2021/07/04 01:39:53;;;;;;;8.57;7.38;;;17.90;99.90;;;;;;5032203;28;20056;-79
2021/07/04 01:42:21;;;;;;;9.52;7.63;;;17.80;99.90;;;;;;5029938;28;20033;-79
2021/07/04 01:44:47;;;;;;;11.70;8.13;;;17.80;99.90;;;;;;5030382;28;20049;-79
2021/07/04 01:47:14;;;;;;;9.82;7.97;;;17.80;99.90;;;;;;5026495;28;20054;-76
2021/07/04 01:49:42;;;;;;;9.98;8.35;;;17.70;99.90;;;;;;4996386;28;20383;-78
2021/07/04 01:52:09;;;;;;;10.10;8.55;;;17.80;99.90;;;;;;5030349;28;20041;-78
2021/07/04 01:54:37;;;;;;;10.52;8.90;;;17.80;99.90;;;;;;5038165;28;20025;-78
2021/07/04 01:57:11;;;;;;;11.02;8.23;;;17.70;99.90;;;;;;5027061;28;20046;-78
2021/07/04 01:59:43;;;;;;;9.10;7.65;;;17.70;99.90;;;;;;5007973;28;20045;-79
2021/07/04 02:02:16;;;;;;;9.48;8.23;;;17.70;99.90;;;;;;5031069;28;20041;-76
2021/07/04 02:04:43;;;;;;;9.95;8.18;;;17.70;99.90;;;;;;5043285;28;20046;-79
2021/07/04 02:07:21;;;;;;;9.85;8.60;;;17.70;99.90;;;;;;5046164;28;20835;-78
2021/07/04 02:09:52;;;;;;;11.30;8.77;;;17.70;99.90;;;;;;5046172;28;20045;-79
2021/07/04 02:12:21;;;;;;;10.20;8.43;;;17.80;99.90;;;;;;5016375;28;20046;-78
2021/07/04 02:14:52;;;;;;;9.27;8.27;;;17.70;99.90;;;;;;5030776;28;20034;-79
2021/07/04 02:17:36;;;;;;;11.15;8.77;;;17.60;99.90;;;;;;5018053;28;20045;-78
2021/07/04 02:20:32;;;;;;;11.65;8.10;;;17.60;99.90;;;;;;4997043;28;20046;-79
2021/07/04 02:23:37;;;;;;;10.40;8.27;;;17.60;99.90;;;;;;4992542;28;20630;-78
2021/07/04 02:26:30;;;;;;;8.48;7.55;;;17.50;99.90;;;;;;4990043;28;20068;-79
2021/07/04 02:29:00;;;;;;;10.25;8.40;;;17.60;99.90;;;;;;4975900;28;20050;-78
2021/07/04 02:31:34;;;;;;;12.57;7.78;;;17.60;99.90;;;;;;5015078;28;20042;-80
2021/07/04 02:34:02;;;;;;;10.02;8.50;;;17.60;99.90;;;;;;5008542;28;20034;-79
2021/07/04 02:36:34;;;;;;;9.10;7.82;;;17.60;99.90;;;;;;5014720;28;20045;-77
2021/07/04 02:39:11;;;;;;;9.95;8.20;;;17.60;99.90;;;;;;5015957;28;20057;-78
2021/07/04 02:41:37;;;;;;;9.77;7.32;;;17.60;99.90;;;;;;5011556;28;20044;-78
2021/07/04 02:44:03;;;;;;;10.65;7.90;;;17.60;99.90;;;;;;5025508;28;20029;-79
2021/07/04 02:46:31;;;;;;;10.60;8.93;;;17.60;99.90;;;;;;5017535;28;20041;-79
2021/07/04 02:48:58;;;;;;;10.07;8.15;;;17.70;99.90;;;;;;4998566;28;20046;-79
2021/07/04 02:51:25;;;;;;;10.38;7.88;;;17.60;99.90;;;;;;5016792;28;20030;-79
2021/07/04 02:53:51;;;;;;;14.10;9.02;;;17.60;99.90;;;;;;5030239;28;20038;-79
2021/07/04 02:56:23;;;;;;;11.93;8.88;;;17.60;99.90;;;;;;5030670;28;20042;-79
2021/07/04 02:58:49;;;;;;;9.75;8.15;;;17.60;99.90;;;;;;5032985;28;20045;-80
2021/07/04 03:01:16;;;;;;;10.02;8.02;;;17.50;99.90;;;;;;5013964;28;20037;-76
2021/07/04 03:03:43;;;;;;;9.90;8.27;;;17.50;99.90;;;;;;5032156;28;20032;-80
2021/07/04 03:06:10;;;;;;;9.50;7.72;;;17.50;99.90;;;;;;5033413;28;20045;-80
2021/07/04 03:08:37;;;;;;;10.57;8.15;;;17.50;99.90;;;;;;5028569;28;20053;-80
2021/07/04 03:11:03;;;;;;;10.13;7.90;;;17.50;99.90;;;;;;5024551;28;20048;-80
2021/07/04 03:13:34;;;;;;;10.57;8.27;;;17.50;99.90;;;;;;5012730;28;20034;-77
2021/07/04 03:16:03;;;;;;;9.15;8.07;;;17.60;99.90;;;;;;5026774;28;20509;-79
2021/07/04 03:18:31;;;;;;;11.82;8.60;;;17.60;99.90;;;;;;5033955;28;20494;-80
2021/07/04 03:20:58;;;;;;;9.02;8.13;;;17.60;99.90;;;;;;5034711;28;20034;-80
2021/07/04 03:23:24;;;;;;;9.05;7.60;;;17.60;99.90;;;;;;5030414;28;20475;-80
2021/07/04 03:25:55;;;;;;;10.77;8.82;;;17.60;99.90;;;;;;5034272;28;20113;-80
2021/07/04 03:28:24;;;;;;;8.00;7.15;;;17.60;99.90;;;;;;5026378;28;20049;-80
2021/07/04 03:30:55;;;;;;;10.50;8.05;;;17.60;99.90;;;;;;5014436;28;20041;-79
2021/07/04 03:33:22;;;;;;;9.77;8.10;;;17.60;99.90;;;;;;5018270;28;20052;-79
2021/07/04 03:35:48;;;;;;;8.88;7.03;;;17.60;99.90;;;;;;5016736;28;20862;-80
2021/07/04 03:38:15;;;;;;;9.57;8.57;;;17.60;99.90;;;;;;5032084;28;20067;-80
2021/07/04 03:40:45;;;;;;;11.25;8.18;;;17.60;99.90;;;;;;5034496;28;20038;-78
2021/07/04 03:43:29;;;;;;;10.23;8.35;;;17.60;99.90;;;;;;5033433;28;20029;-80
2021/07/04 03:45:56;;;;;;;8.43;7.45;;;17.70;99.90;;;;;;5031482;28;20144;-80
2021/07/04 03:48:25;;;;;;;9.40;8.48;;;17.70;99.90;;;;;;5015755;28;20383;-80
2021/07/04 03:51:02;;;;;;;10.93;8.77;;;17.70;99.90;;;;;;5015960;28;20040;-80
2021/07/04 03:53:32;;;;;;;9.85;7.70;;;17.60;99.90;;;;;;5007777;28;20045;-80
2021/07/04 03:55:59;;;;;;;12.27;8.13;;;17.60;99.90;;;;;;5018492;28;20474;-79
2021/07/04 03:58:26;;;;;;;9.00;7.32;;;17.70;99.90;;;;;;5019759;28;20050;-79
2021/07/04 04:00:53;;;;;;;9.48;7.50;;;17.60;99.90;;;;;;5015680;28;20053;-78
2021/07/04 04:03:29;;;;;;;8.88;7.97;;;17.70;99.90;;;;;;5029451;28;20037;-79
2021/07/04 04:06:01;;;;;;;10.30;8.77;;;17.70;99.90;;;;;;5030683;28;20529;-80
2021/07/04 04:08:37;;;;;;;9.52;7.40;;;17.70;99.90;;;;;;4995098;28;20065;-74
2021/07/04 04:11:07;;;;;;;8.60;7.70;;;17.70;99.90;;;;;;5022443;28;20038;-78
2021/07/04 04:13:39;;;;;;;10.93;8.80;;;17.80;99.90;;;;;;5028562;28;20042;-80
2021/07/04 04:16:13;;;;;;;10.38;8.40;;;17.70;99.90;;;;;;5015093;28;20038;-77
2021/07/04 04:18:42;;;;;;;10.38;7.85;;;17.70;99.90;;;;;;5012656;28;20049;-79
2021/07/04 04:21:11;;;;;;;11.55;8.52;;;17.70;99.90;;;;;;5013703;28;20049;-78
2021/07/04 04:23:38;;;;;;;7.93;7.13;;;17.70;99.90;;;;;;5013750;28;20038;-78
2021/07/04 04:26:08;;;;;;;9.50;8.50;;;17.80;99.90;;;;;;5031393;28;20426;-78
2021/07/04 04:28:34;;;;;;;10.57;8.60;;;17.80;99.90;;;;;;5032247;28;20046;-79
2021/07/04 04:31:00;;;;;;;9.45;8.35;;;17.90;99.90;;;;;;5020669;28;20514;-79
2021/07/04 04:33:27;;;;;;;9.57;7.88;;;18.00;99.90;;;;;;5011315;28;20049;-79
2021/07/04 04:35:53;;;;;;;14.05;8.98;;;18.10;99.90;;;;;;5012802;28;20045;-79
2021/07/04 04:38:19;;;;;;;10.82;8.90;;;18.20;99.90;;;;;;5018929;28;20029;-76
2021/07/04 04:40:46;;;;;;;9.30;8.30;;;18.30;99.90;;;;;;5020291;28;20387;-78
2021/07/04 04:43:12;;;;;;;10.13;8.10;;;18.40;99.90;;;;;;5028777;28;20034;-80
2021/07/04 04:45:38;;;;;;;10.20;7.35;;;18.60;99.90;;;;;;5020404;28;20118;-80
2021/07/04 04:48:04;;;;;;;10.23;7.72;;;18.60;99.90;;;;;;5033397;28;20033;-78
2021/07/04 04:50:33;;;;;;;10.25;8.38;;;18.70;99.90;;;;;;4998286;28;20399;-79
2021/07/04 04:52:59;;;;;;;9.73;7.90;;;18.70;99.90;;;;;;5025405;28;20038;-78
2021/07/04 04:55:25;;;;;;;9.50;8.38;;;18.70;99.90;;;;;;5015588;28;20030;-79
2021/07/04 04:57:51;;;;;;;11.77;7.68;;;18.60;99.90;;;;;;5028553;28;20030;-80
2021/07/04 05:00:18;;;;;;;9.48;7.75;;;18.60;99.90;;;;;;5030099;28;20056;-76
2021/07/04 05:02:44;;;;;;;9.23;7.75;;;18.70;99.90;;;;;;5033129;28;20069;-79
2021/07/04 05:05:11;;;;;;;9.68;7.68;;;18.70;99.90;;;;;;5011614;28;20045;-78
2021/07/04 05:07:37;;;;;;;9.15;8.25;;;18.80;99.90;;;;;;5022869;28;20042;-79
2021/07/04 05:10:04;;;;;;;9.57;8.50;;;18.80;99.90;;;;;;5033531;28;20045;-77
2021/07/04 05:12:31;;;;;;;9.63;8.63;;;18.80;99.90;;;;;;5030594;28;20117;-79
2021/07/04 05:14:59;;;;;;;8.57;7.78;;;18.70;99.90;;;;;;5031543;28;20041;-78
2021/07/04 05:17:26;;;;;;;10.48;7.80;;;18.70;99.90;;;;;;5033660;28;20034;-78
2021/07/04 05:19:52;;;;;;;9.07;8.25;;;18.80;99.90;;;;;;5032657;28;20041;-78
2021/07/04 05:22:18;;;;;;;10.45;7.38;;;18.80;99.90;;;;;;5033153;28;20025;-75
2021/07/04 05:24:45;;;;;;;8.90;8.00;;;18.70;99.90;;;;;;5024777;28;20431;-78
2021/07/04 05:27:11;;;;;;;7.65;6.85;;;18.70;99.90;;;;;;5014039;28;20045;-78
2021/07/04 05:29:37;;;;;;;7.93;7.13;;;18.80;99.90;;;;;;4998712;28;20050;-78
2021/07/04 05:32:04;;;;;;;8.35;6.80;;;19.40;99.90;;;;;;5014355;28;20455;-77
2021/07/04 05:34:30;;;;;;;7.50;5.93;;;21.20;99.90;;;;;;5019671;28;20029;-78
2021/07/04 05:36:56;;;;;;;7.65;6.57;;;22.70;99.90;;;;;;5029337;28;20049;-80
2021/07/04 05:39:26;;;;;;;8.30;7.13;;;23.70;98.90;;;;;;5013521;28;20053;-77
2021/07/04 05:41:53;;;;;;;7.15;6.35;;;24.20;95.90;;;;;;5025327;28;20045;-78
2021/07/04 05:44:19;;;;;;;7.57;6.43;;;23.50;95.80;;;;;;5031622;28;20052;-76
2021/07/04 05:46:46;;;;;;;6.88;6.18;;;23.70;94.80;;;;;;5032226;28;20045;-77
2021/07/04 05:49:12;;;;;;;7.35;6.40;;;24.60;94.80;;;;;;5032076;28;20033;-77
2021/07/04 05:51:39;;;;;;;6.97;6.28;;;25.20;92.60;;;;;;5038178;28;20128;-77
2021/07/04 05:54:05;;;;;;;8.70;5.85;;;25.50;92.40;;;;;;5025720;28;20498;-77
2021/07/04 05:56:32;;;;;;;6.63;5.97;;;26.10;90.50;;;;;;5028996;28;20030;-77
2021/07/04 05:58:59;;;;;;;6.55;5.93;;;25.80;90.20;;;;;;5033520;28;20033;-78
2021/07/04 06:01:25;;;;;;;6.65;6.05;;;25.70;89.90;;;;;;5032854;28;20037;-78
2021/07/04 06:03:51;;;;;;;8.00;6.10;;;25.10;89.30;;;;;;5033993;28;20050;-79
2021/07/04 06:06:17;;;;;;;6.97;6.25;;;23.60;91.80;;;;;;5032396;28;20049;-78
2021/07/04 06:08:43;;;;;;;7.30;6.60;;;23.50;92.40;;;;;;5016956;28;20044;-79
2021/07/04 06:11:10;;;;;;;6.50;5.82;;;23.20;93.00;;;;;;5013790;28;20053;-79
2021/07/04 06:13:36;;;;;;;7.75;6.25;;;22.60;94.10;;;;;;5032321;28;20459;-78
2021/07/04 06:16:02;;;;;;;7.80;7.00;;;22.90;94.20;;;;;;5015016;28;20054;-79
2021/07/04 06:18:29;;;;;;;7.32;6.40;;;22.90;93.60;;;;;;5033466;28;20049;-78
2021/07/04 06:20:55;;;;;;;7.10;6.30;;;23.30;93.90;;;;;;5033044;28;20049;-78
2021/07/04 06:23:22;;;;;;;8.45;6.93;;;23.60;93.00;;;;;;5033431;28;20037;-75
2021/07/04 06:25:48;;;;;;;6.90;6.20;;;23.60;93.10;;;;;;5033094;28;20036;-79
2021/07/04 06:28:14;;;;;;;9.15;6.50;;;23.30;93.90;;;;;;5025759;28;20037;-78
2021/07/04 06:30:40;;;;;;;10.55;6.93;;;22.80;93.50;;;;;;5019709;28;20202;-80
2021/07/04 06:33:07;;;;;;;7.70;6.90;;;22.30;94.50;;;;;;5032512;28;20482;-78
2021/07/04 06:35:33;;;;;;;9.07;6.82;;;22.60;95.20;;;;;;5031603;28;20041;-78
2021/07/04 06:37:59;;;;;;;7.05;6.35;;;22.90;94.30;;;;;;5037920;28;20029;-79
2021/07/04 06:40:25;;;;;;;7.97;6.90;;;23.10;93.70;;;;;;5038133;28;20041;-80
2021/07/04 06:42:51;;;;;;;6.53;5.93;;;23.90;93.70;;;;;;5028021;28;20052;-78
2021/07/04 06:45:18;;;;;;;7.47;6.85;;;24.60;92.10;;;;;;5034548;28;20050;-78
2021/07/04 06:47:47;;;;;;;6.43;5.82;;;24.90;90.70;;;;;;5032715;28;20048;-77
2021/07/04 06:50:15;;;;;;;7.90;6.50;;;25.20;90.90;;;;;;5033487;28;20045;-77
2021/07/04 06:52:42;;;;;;;6.82;6.22;;;25.20;90.30;;;;;;5012758;28;20045;-79
2021/07/04 06:55:09;;;;;;;7.15;5.85;;;25.00;90.00;;;;;;5026416;28;20030;-79
2021/07/04 06:57:36;;;;;;;6.60;5.90;;;24.90;90.20;;;;;;5023362;28;20029;-78
2021/07/04 07:00:09;;;;;;;8.18;6.65;;;25.00;89.70;;;;;;5025816;28;20505;-78
2021/07/04 07:02:37;;;;;;;8.85;6.03;;;24.70;89.90;;;;;;5022470;28;20054;-78
2021/07/04 07:05:05;;;;;;;7.57;6.28;;;24.50;91.40;;;;;;4998793;28;20038;-79
2021/07/04 07:07:31;;;;;;;7.32;6.07;;;24.60;90.10;;;;;;5022330;28;20038;-79
2021/07/04 07:09:57;;;;;;;6.68;5.80;;;24.80;90.30;;;;;;5026313;28;20045;-77
2021/07/04 07:12:24;;;;;;;7.05;6.13;;;25.60;89.40;;;;;;5031220;28;20052;-75
2021/07/04 07:14:51;;;;;;;7.38;6.65;;;26.10;85.80;;;;;;5033804;28;20030;-77
2021/07/04 07:17:17;;;;;;;8.25;6.75;;;25.40;87.90;;;;;;5034587;28;20048;-76
2021/07/04 07:19:44;;;;;;;6.68;6.07;;;25.60;87.90;;;;;;5012362;28;20045;-77
2021/07/04 07:22:18;;;;;;;7.30;6.32;;;25.70;87.80;;;;;;5021519;28;20068;-76
2021/07/04 07:24:46;;;;;;;7.78;7.00;;;25.90;87.40;;;;;;5020039;28;20132;-72
2021/07/04 07:27:13;;;;;;;6.85;5.97;;;26.40;85.50;;;;;;5019876;28;20373;-79
2021/07/04 07:29:40;;;;;;;6.30;5.70;;;27.00;83.30;;;;;;5022700;28;20411;-78
2021/07/04 07:32:07;;;;;;;7.45;5.93;;;27.20;81.50;;;;;;5029494;28;20049;-78
2021/07/04 07:34:34;;;;;;;7.10;5.88;;;27.50;81.50;;;;;;5014590;28;20029;-77
2021/07/04 07:37:00;;;;;;;6.38;5.85;;;28.30;79.10;;;;;;5030942;28;20037;-78
2021/07/04 07:39:26;;;;;;;5.95;5.35;;;27.60;78.70;;;;;;5034569;28;20037;-78
2021/07/04 07:41:53;;;;;;;6.93;5.97;;;27.70;77.60;;;;;;5013521;28;20053;-78
2021/07/04 07:44:19;;;;;;;6.93;6.32;;;28.00;77.10;;;;;;5029825;28;20056;-84
2021/07/04 07:46:54;;;;;;;6.63;5.30;;;26.30;80.90;;;;;;5012375;28;20042;-79
2021/07/04 07:49:21;;;;;;;7.50;6.00;;;27.20;80.90;;;;;;5025475;28;20053;-80
2021/07/04 07:51:51;;;;;;;5.93;5.43;;;28.60;77.10;;;;;;5020621;28;20053;-80
2021/07/04 07:54:26;;;;;;;6.50;5.68;;;28.50;75.80;;;;;;5008442;28;20053;-75
2021/07/04 07:56:53;;;;;;;7.20;6.50;;;27.90;76.30;;;;;;5026601;28;20145;-78
2021/07/04 07:59:20;;;;;;;11.93;6.07;;;26.50;78.20;;;;;;5025290;28;20066;-79
2021/07/04 08:01:47;;;;;;;7.20;5.47;;;26.70;79.50;;;;;;5033872;28;20359;-79
2021/07/04 08:04:13;;;;;;;8.38;5.93;;;27.00;80.50;;;;;;5033629;28;20038;-80
2021/07/04 08:06:40;;;;;;;6.50;5.72;;;27.70;76.60;;;;;;5033077;28;20048;-79
2021/07/04 08:09:08;;;;;;;6.60;6.00;;;27.20;77.40;;;;;;5031156;28;20411;-80
2021/07/04 08:11:46;;;;;;;6.97;6.00;;;25.40;79.70;;;;;;5033592;28;20502;-77
2021/07/04 08:14:14;;;;;;;7.55;5.88;;;25.00;82.30;;;;;;5021480;28;20045;-78
2021/07/04 08:16:45;;;;;;;6.93;5.85;;;25.20;82.80;;;;;;4999809;28;20129;-78
2021/07/04 08:19:13;;;;;;;6.63;5.93;;;25.20;82.30;;;;;;5033277;28;20045;-79
2021/07/04 08:21:40;;;;;;;6.32;5.72;;;24.90;83.50;;;;;;5032630;28;20029;-80
2021/07/04 08:24:06;;;;;;;8.23;6.30;;;24.70;83.70;;;;;;5033528;28;20135;-78
2021/07/04 08:26:33;;;;;;;6.18;5.57;;;24.60;84.10;;;;;;5032929;28;20037;-79
2021/07/04 08:29:00;;;;;;;7.15;6.47;;;24.90;84.80;;;;;;5032544;28;20064;-78
2021/07/04 08:31:27;;;;;;;7.82;5.75;;;25.20;82.20;;;;;;5032401;28;20049;-75
2021/07/04 08:33:53;;;;;;;8.00;5.45;;;25.80;81.70;;;;;;5009503;28;20034;-78
2021/07/04 08:36:20;;;;;;;6.47;5.57;;;27.20;80.50;;;;;;5014923;28;20052;-79
2021/07/04 08:38:47;;;;;;;6.97;4.85;;;29.10;76.70;;;;;;5026043;28;20049;-78
2021/07/04 08:41:14;;;;;;;9.00;5.53;;;29.30;72.90;;;;;;5022427;28;20459;-80
2021/07/04 08:43:40;;;;;;;5.95;5.43;;;29.60;70.00;;;;;;5016931;28;20484;-82
2021/07/04 08:46:09;;;;;;;6.07;5.47;;;28.30;70.40;;;;;;5013242;28;20073;-80
2021/07/04 08:48:37;;;;;;;6.55;5.43;;;27.70;72.70;;;;;;5010194;28;20042;-80
2021/07/04 08:51:08;;;;;;;7.57;5.47;;;26.80;75.70;;;;;;5014493;28;20038;-79
2021/07/04 08:53:35;;;;;;;7.28;6.07;;;26.50;74.50;;;;;;5029668;28;20352;-80
2021/07/04 08:56:05;;;;;;;6.25;5.63;;;25.70;77.30;;;;;;5013941;28;20026;-81
2021/07/04 08:58:31;;;;;;;7.20;6.50;;;25.40;79.70;;;;;;5029406;28;20344;-80
2021/07/04 09:01:17;;;;;;;9.55;6.50;;;25.00;81.80;;;;;;5032426;28;20050;-79
2021/07/04 09:03:48;;;;;;;7.57;6.00;;;25.20;81.60;;;;;;5013341;28;20034;-79
2021/07/04 09:06:34;;;;;;;8.85;6.10;;;25.20;80.60;;;;;;5014465;28;20026;-80
2021/07/04 09:09:17;;;;;;;7.18;5.82;;;25.20;81.50;;;;;;5024860;28;20068;-81
2021/07/04 09:12:02;;;;;;;6.95;5.78;;;25.50;80.80;;;;;;5032388;28;20048;-80
2021/07/04 09:14:40;;;;;;;6.53;5.80;;;25.70;78.20;;;;;;5014958;28;20045;-81
2021/07/04 09:17:10;;;;;;;5.97;5.18;;;25.80;77.60;;;;;;5028922;28;20048;-80
2021/07/04 09:19:41;;;;;;;7.65;5.22;;;25.80;77.60;;;;;;5019115;28;20053;-81
2021/07/04 09:22:10;;;;;;;8.85;5.85;;;25.70;76.90;;;;;;5025419;28;20037;-82
2021/07/04 09:24:41;;;;;;;5.43;4.93;;;25.30;77.10;;;;;;5032167;28;20046;-81
2021/07/04 09:27:11;;;;;;;6.72;4.95;;;24.90;77.10;;;;;;5024100;28;20052;-80
2021/07/04 09:29:46;;;;;;;7.78;5.40;;;24.90;79.10;;;;;;5013127;28;20045;-79
2021/07/04 09:32:16;;;;;;;6.43;5.30;;;24.80;77.90;;;;;;5018374;28;20025;-81
2021/07/04 09:35:02;;;;;;;6.50;5.90;;;25.00;77.90;;;;;;5016583;28;20403;-80
2021/07/04 09:37:33;;;;;;;6.45;5.85;;;24.60;80.40;;;;;;5021928;28;20068;-80
2021/07/04 09:40:17;;;;;;;6.45;5.80;;;24.50;81.10;;;;;;5032058;28;20041;-81
2021/07/04 09:42:58;;;;;;;7.00;6.30;;;24.50;82.10;;;;;;5031262;28;20463;-81
2021/07/04 09:45:47;;;;;;;6.45;5.63;;;24.50;82.40;;;;;;5011047;28;20514;-78
2021/07/04 09:48:35;;;;;;;7.15;6.20;;;24.90;81.90;;;;;;4994285;28;20057;-81
2021/07/04 09:51:18;;;;;;;6.28;5.68;;;25.10;81.80;;;;;;5012639;28;20041;-82
2021/07/04 09:53:46;;;;;;;6.90;5.07;;;25.10;78.50;;;;;;5010676;28;20048;-81
2021/07/04 09:56:17;;;;;;;6.00;5.10;;;25.20;79.40;;;;;;5012948;28;20037;-82
2021/07/04 09:58:49;;;;;;;6.72;5.18;;;25.80;77.30;;;;;;5026208;28;20026;-82
2021/07/04 10:01:34;;;;;;;7.88;5.93;;;26.10;78.30;;;;;;5024327;28;20384;-82
2021/07/04 10:04:02;;;;;;;8.05;5.57;;;26.10;77.20;;;;;;5000601;28;20030;-83
2021/07/04 10:06:47;;;;;;;6.45;5.65;;;26.40;77.70;;;;;;5015979;28;20034;-81
2021/07/04 10:09:15;;;;;;;8.52;5.30;;;26.60;74.90;;;;;;5013893;28;20408;-81
2021/07/04 10:11:41;;;;;;;5.85;4.50;;;27.00;74.80;;;;;;5012397;28;20503;-80
2021/07/04 10:14:08;;;;;;;6.13;4.70;;;27.20;74.90;;;;;;5012727;28;20037;-82
2021/07/04 10:16:34;;;;;;;6.35;5.10;;;27.10;74.70;;;;;;5011897;28;20065;-82
2021/07/04 10:19:03;;;;;;;7.05;5.15;;;27.30;74.20;;;;;;5012343;28;20026;-81
2021/07/04 10:21:32;;;;;;;6.97;5.10;;;26.80;75.00;;;;;;5012065;28;20041;-82
2021/07/04 10:23:59;;;;;;;5.50;4.95;;;26.10;76.00;;;;;;5012061;28;20045;-82
2021/07/04 10:26:27;;;;;;;5.95;5.18;;;26.20;76.20;;;;;;5012089;28;20371;-84
2021/07/04 10:28:57;;;;;;;6.00;5.05;;;26.20;76.40;;;;;;4993867;28;20053;-82
2021/07/04 10:31:24;;;;;;;4.93;4.38;;;25.90;75.70;;;;;;5012117;28;20443;-81
2021/07/04 10:34:09;;;;;;;7.18;5.22;;;26.00;77.00;;;;;;5011373;28;20026;-82
2021/07/04 10:36:53;;;;;;;5.20;4.47;;;26.70;74.70;;;;;;5011872;28;20022;-81
2021/07/04 10:39:20;;;;;;;8.00;4.30;;;27.30;71.80;;;;;;5015379;28;20034;-77
2021/07/04 10:41:58;;;;;;;6.10;4.00;;;27.00;71.00;;;;;;5015067;28;20033;-80
2021/07/04 10:44:43;;;;;;;4.13;3.72;;;26.80;71.60;;;;;;5020303;28;20054;-80
2021/07/04 10:47:16;;;;;;;4.10;3.70;;;27.00;73.50;;;;;;5035377;28;20113;-79
2021/07/04 10:50:22;;;;;;;3.88;3.50;;;26.90;69.50;;;;;;5021000;28;20203;-79
2021/07/04 10:52:50;;;;;;;4.35;3.78;;;26.70;71.00;;;;;;5013118;28;20037;-79
2021/07/04 10:55:31;;;;;;;4.78;3.92;;;26.80;73.50;;;;;;5032069;28;20041;-81
2021/07/04 10:58:00;;;;;;;4.32;3.60;;;26.30;72.60;;;;;;5034088;28;20037;-80
2021/07/04 11:00:36;;;;;;;4.43;3.92;;;26.40;73.40;;;;;;5035071;28;20039;-80
2021/07/04 11:03:12;;;;;;;4.72;3.53;;;26.50;72.80;;;;;;5035180;28;20033;-80
2021/07/04 11:05:40;;;;;;;5.40;3.95;;;26.50;71.70;;;;;;5022820;28;20113;-79
2021/07/04 11:08:10;;;;;;;6.50;3.95;;;26.70;72.20;;;;;;5017774;28;20471;-80
2021/07/04 11:10:40;;;;;;;5.00;3.88;;;26.90;72.30;;;;;;5034522;28;20053;-77
2021/07/04 11:13:06;;;;;;;4.47;3.10;;;26.70;72.60;;;;;;5029315;28;20034;-80
2021/07/04 11:15:33;;;;;;;6.72;3.40;;;26.50;70.20;;;;;;5031938;28;20029;-80
2021/07/04 11:18:09;;;;;;;3.75;3.42;;;26.40;71.70;;;;;;5034973;28;20041;-80
2021/07/04 11:20:39;;;;;;;4.10;3.70;;;26.40;71.40;;;;;;5015383;28;20030;-81
2021/07/04 11:23:06;;;;;;;5.05;3.88;;;26.30;71.90;;;;;;5019564;28;20037;-83
2021/07/04 11:25:43;;;;;;;5.80;3.88;;;26.20;72.10;;;;;;5020194;28;20030;-83
2021/07/04 11:28:15;;;;;;;4.65;4.13;;;26.40;72.50;;;;;;5030578;28;20045;-83
2021/07/04 11:31:02;;;;;;;5.53;4.40;;;26.00;73.30;;;;;;5030369;28;20479;-84
2021/07/04 11:33:38;;;;;;;5.90;4.40;;;25.70;73.60;;;;;;5021295;28;20041;-78
2021/07/04 11:36:10;;;;;;;5.75;5.05;;;25.50;74.20;;;;;;5034755;28;20045;-89
2021/07/04 11:39:00;;;;;;;6.95;5.38;;;25.00;76.30;;;;;;5022264;28;20034;-83
2021/07/04 11:41:39;;;;;;;8.30;6.22;;;24.30;81.80;;;;;;5038913;28;20032;-88
2021/07/04 11:44:11;;;;;;;6.73;5.37;;;23.80;87.70;;;;;;5029816;28;20062;-89
2021/07/04 11:46:43;;;;;;;10.30;7.07;;;23.60;90.50;;;;;;5033972;28;20045;-87
2021/07/04 11:49:13;;;;;;;7.55;6.70;;;23.50;91.60;;;;;;5035404;28;20029;-89
2021/07/04 11:51:44;;;;;;;8.25;7.07;;;23.40;92.70;;;;;;5014797;28;20038;-92
2021/07/04 11:54:20;;;;;;;8.38;7.22;;;23.20;93.50;;;;;;5028066;28;20383;-78
2021/07/04 11:56:48;;;;;;;7.35;6.63;;;23.20;93.10;;;;;;5030664;28;20041;-84
2021/07/04 11:59:21;;;;;;;10.35;6.55;;;23.20;91.50;;;;;;5017804;28;20464;-86
2021/07/04 12:02:00;;;;;;;7.13;6.43;;;23.30;92.00;;;;;;5034185;28;20034;-85
2021/07/04 12:04:45;;;;;;;6.85;6.15;;;23.30;91.30;;;;;;5034511;28;20038;-85
2021/07/04 12:07:13;;;;;;;6.78;5.63;;;23.40;89.40;;;;;;5034574;28;20034;-86
2021/07/04 12:09:40;;;;;;;7.03;5.75;;;23.40;90.00;;;;;;5018745;28;20052;-88
2021/07/04 12:12:15;;;;;;;6.45;5.85;;;23.30;86.10;;;;;;5031536;28;20034;-86
2021/07/04 12:14:42;;;;;;;6.63;5.90;;;23.30;87.30;;;;;;5034042;28;20025;-86
2021/07/04 12:17:39;;;;;;;6.07;5.47;;;23.30;86.70;;;;;;5013844;28;20030;-88
2021/07/04 12:20:12;;;;;;;6.78;6.10;;;23.30;89.40;;;;;;5024106;28;20386;-86
2021/07/04 12:22:59;;;;;;;6.45;5.85;;;23.30;91.60;;;;;;5021742;28;20046;-88
2021/07/04 12:25:33;;;;;;;9.88;6.40;;;23.30;88.90;;;;;;5021840;28;20029;-88
2021/07/04 12:28:09;;;;;;;8.32;6.85;;;23.40;90.30;;;;;;5034575;28;20553;-87
2021/07/04 12:30:46;;;;;;;8.07;6.53;;;23.40;90.00;;;;;;5034421;28;20041;-86
2021/07/04 12:33:17;;;;;;;5.93;3.78;;;23.40;90.30;;;;;;5020413;28;20038;-89
2021/07/04 12:35:55;;;;;;;3.38;2.70;;;22.60;87.00;;;;;;5017397;28;20030;-89
2021/07/04 12:38:24;;;;;;;2.83;2.15;;;21.50;90.00;;;;;;5035569;28;20026;-90
2021/07/04 12:40:52;;;;;;;2.67;1.93;;;21.00;91.80;;;;;;5034550;28;20044;-86
2021/07/04 12:43:28;;;;;;;2.40;2.05;;;20.60;92.20;;;;;;5027802;28;20285;-79
2021/07/04 12:45:56;;;;;;;5.70;2.30;;;20.50;93.70;;;;;;5008254;28;20057;-79
2021/07/04 12:48:24;;;;;;;7.95;3.53;;;20.40;95.80;;;;;;4996096;28;20045;-83
2021/07/04 12:51:00;;;;;;;5.78;2.40;;;20.00;99.80;;;;;;5034840;28;20034;-77
2021/07/04 12:53:53;;;;;;;4.90;2.47;;;19.20;99.90;;;;;;5015089;28;20034;-81
2021/07/04 12:56:25;;;;;;;11.48;4.45;;;18.70;99.90;;;;;;5007472;28;20038;-89
2021/07/04 12:58:54;;;;;;;11.38;3.83;;;18.60;99.90;;;;;;4995951;28;20037;-90
2021/07/04 13:01:25;;;;;;;5.60;4.03;;;18.40;99.90;;;;;;4996036;28;20043;-74